sensor_id;sensor_type;location;lat;lon;timestamp;P1;durP1;ratioP1;P2;durP2;ratioP2
9807;SDS011;4943;52.550;13.462;2023-02-21T00:01:39;4.40;;;3.20;;
9807;SDS011;4943;52.550;13.462;2023-02-21T00:04:24;3.97;;;3.43;;
9807;SDS011;4943;52.550;13.462;2023-02-21T00:07:12;5.83;;;3.47;;
9807;SDS011;4943;52.550;13.462;2023-02-21T00:09:57;4.47;;;3.27;;
9807;SDS011;4943;52.550;13.462;2023-02-21T00:12:43;5.43;;;3.60;;
9807;SDS011;4943;52.550;13.462;2023-02-21T00:15:28;4.23;;;3.57;;
9807;SDS011;4943;52.550;13.462;2023-02-21T00:18:14;3.70;;;3.00;;
9807;SDS011;4943;52.550;13.462;2023-02-21T00:20:59;4.13;;;3.10;;
9807;SDS011;4943;52.550;13.462;2023-02-21T00:23:46;6.43;;;4.20;;
9807;SDS011;4943;52.550;13.462;2023-02-21T00:26:32;4.33;;;3.37;;
9807;SDS011;4943;52.550;13.462;2023-02-21T00:29:17;4.87;;;3.87;;
9807;SDS011;4943;52.550;13.462;2023-02-21T00:32:03;5.07;;;4.10;;
9807;SDS011;4943;52.550;13.462;2023-02-21T00:34:49;5.67;;;4.13;;
9807;SDS011;4943;52.550;13.462;2023-02-21T00:37:34;4.60;;;3.60;;
9807;SDS011;4943;52.550;13.462;2023-02-21T00:40:21;5.37;;;4.30;;
9807;SDS011;4943;52.550;13.462;2023-02-21T00:43:06;4.83;;;4.10;;
9807;SDS011;4943;52.550;13.462;2023-02-21T00:45:52;4.30;;;3.17;;
9807;SDS011;4943;52.550;13.462;2023-02-21T00:48:38;5.30;;;4.10;;
9807;SDS011;4943;52.550;13.462;2023-02-21T00:51:23;5.63;;;3.80;;
9807;SDS011;4943;52.550;13.462;2023-02-21T00:54:09;5.57;;;4.07;;
9807;SDS011;4943;52.550;13.462;2023-02-21T00:56:56;6.03;;;4.67;;
9807;SDS011;4943;52.550;13.462;2023-02-21T00:59:41;4.23;;;3.37;;
9807;SDS011;4943;52.550;13.462;2023-02-21T01:02:27;5.00;;;4.40;;
9807;SDS011;4943;52.550;13.462;2023-02-21T01:05:13;5.00;;;4.37;;
9807;SDS011;4943;52.550;13.462;2023-02-21T01:07:58;6.27;;;4.73;;
9807;SDS011;4943;52.550;13.462;2023-02-21T01:10:44;6.67;;;4.37;;
9807;SDS011;4943;52.550;13.462;2023-02-21T01:13:30;6.43;;;4.87;;
9807;SDS011;4943;52.550;13.462;2023-02-21T01:16:16;5.90;;;4.60;;
9807;SDS011;4943;52.550;13.462;2023-02-21T01:19:01;5.80;;;4.90;;
9807;SDS011;4943;52.550;13.462;2023-02-21T01:21:47;6.77;;;5.10;;
9807;SDS011;4943;52.550;13.462;2023-02-21T01:24:32;5.50;;;4.53;;
9807;SDS011;4943;52.550;13.462;2023-02-21T01:27:18;7.03;;;4.80;;
9807;SDS011;4943;52.550;13.462;2023-02-21T01:30:05;5.33;;;4.30;;
9807;SDS011;4943;52.550;13.462;2023-02-21T01:32:52;5.83;;;4.67;;
9807;SDS011;4943;52.550;13.462;2023-02-21T01:35:37;6.93;;;5.20;;
9807;SDS011;4943;52.550;13.462;2023-02-21T01:38:23;7.70;;;5.37;;
9807;SDS011;4943;52.550;13.462;2023-02-21T01:41:08;6.93;;;4.97;;
9807;SDS011;4943;52.550;13.462;2023-02-21T01:43:58;7.30;;;4.80;;
9807;SDS011;4943;52.550;13.462;2023-02-21T01:46:46;8.07;;;5.57;;
9807;SDS011;4943;52.550;13.462;2023-02-21T01:49:32;7.53;;;4.53;;
9807;SDS011;4943;52.550;13.462;2023-02-21T01:52:21;5.47;;;4.47;;
9807;SDS011;4943;52.550;13.462;2023-02-21T01:55:07;6.80;;;5.00;;
9807;SDS011;4943;52.550;13.462;2023-02-21T01:57:54;7.27;;;4.97;;
9807;SDS011;4943;52.550;13.462;2023-02-21T02:00:41;8.50;;;5.23;;
9807;SDS011;4943;52.550;13.462;2023-02-21T02:03:28;10.00;;;5.77;;
9807;SDS011;4943;52.550;13.462;2023-02-21T02:06:15;9.53;;;5.83;;
9807;SDS011;4943;52.550;13.462;2023-02-21T02:09:06;7.90;;;5.60;;
9807;SDS011;4943;52.550;13.462;2023-02-21T02:12:06;8.07;;;5.30;;
9807;SDS011;4943;52.550;13.462;2023-02-21T02:17:53;8.63;;;5.40;;
9807;SDS011;4943;52.550;13.462;2023-02-21T02:30:22;6.07;;;4.23;;
9807;SDS011;4943;52.550;13.462;2023-02-21T02:36:13;6.80;;;4.40;;
9807;SDS011;4943;52.550;13.462;2023-02-21T02:38:46;8.90;;;4.70;;
9807;SDS011;4943;52.550;13.462;2023-02-21T02:41:23;6.47;;;4.60;;
9807;SDS011;4943;52.550;13.462;2023-02-21T02:44:01;8.63;;;4.90;;
9807;SDS011;4943;52.550;13.462;2023-02-21T02:46:36;7.33;;;4.87;;
9807;SDS011;4943;52.550;13.462;2023-02-21T02:49:06;6.43;;;4.80;;
9807;SDS011;4943;52.550;13.462;2023-02-21T02:51:38;6.27;;;4.40;;
9807;SDS011;4943;52.550;13.462;2023-02-21T02:54:06;6.63;;;4.30;;
9807;SDS011;4943;52.550;13.462;2023-02-21T02:56:34;6.70;;;4.57;;
9807;SDS011;4943;52.550;13.462;2023-02-21T02:59:04;8.23;;;5.00;;
9807;SDS011;4943;52.550;13.462;2023-02-21T03:01:39;6.33;;;4.50;;
9807;SDS011;4943;52.550;13.462;2023-02-21T03:04:28;6.97;;;5.23;;
9807;SDS011;4943;52.550;13.462;2023-02-21T03:07:16;6.10;;;4.50;;
9807;SDS011;4943;52.550;13.462;2023-02-21T03:09:51;5.43;;;4.10;;
9807;SDS011;4943;52.550;13.462;2023-02-21T03:12:32;6.87;;;4.43;;
9807;SDS011;4943;52.550;13.462;2023-02-21T03:15:06;6.97;;;4.87;;
9807;SDS011;4943;52.550;13.462;2023-02-21T03:17:38;5.70;;;3.77;;
9807;SDS011;4943;52.550;13.462;2023-02-21T03:20:10;7.03;;;4.80;;
9807;SDS011;4943;52.550;13.462;2023-02-21T03:22:41;7.67;;;4.80;;
9807;SDS011;4943;52.550;13.462;2023-02-21T03:25:11;5.40;;;4.00;;
9807;SDS011;4943;52.550;13.462;2023-02-21T03:27:41;6.10;;;4.40;;
9807;SDS011;4943;52.550;13.462;2023-02-21T03:30:11;6.10;;;4.73;;
9807;SDS011;4943;52.550;13.462;2023-02-21T03:32:41;6.37;;;4.40;;
9807;SDS011;4943;52.550;13.462;2023-02-21T03:35:13;6.93;;;4.40;;
9807;SDS011;4943;52.550;13.462;2023-02-21T03:37:43;6.93;;;4.83;;
9807;SDS011;4943;52.550;13.462;2023-02-21T03:40:13;5.83;;;3.87;;
9807;SDS011;4943;52.550;13.462;2023-02-21T03:42:46;6.70;;;4.40;;
9807;SDS011;4943;52.550;13.462;2023-02-21T03:45:14;6.80;;;4.43;;
9807;SDS011;4943;52.550;13.462;2023-02-21T03:47:42;6.20;;;3.63;;
9807;SDS011;4943;52.550;13.462;2023-02-21T03:50:11;5.63;;;4.23;;
9807;SDS011;4943;52.550;13.462;2023-02-21T03:52:39;7.20;;;4.40;;
9807;SDS011;4943;52.550;13.462;2023-02-21T03:55:08;5.77;;;3.90;;
9807;SDS011;4943;52.550;13.462;2023-02-21T03:57:36;5.33;;;3.17;;
9807;SDS011;4943;52.550;13.462;2023-02-21T04:00:05;8.87;;;4.30;;
9807;SDS011;4943;52.550;13.462;2023-02-21T04:02:33;5.30;;;3.50;;
9807;SDS011;4943;52.550;13.462;2023-02-21T04:05:01;6.57;;;4.07;;
9807;SDS011;4943;52.550;13.462;2023-02-21T04:07:29;5.37;;;3.90;;
9807;SDS011;4943;52.550;13.462;2023-02-21T04:09:58;5.93;;;3.77;;
9807;SDS011;4943;52.550;13.462;2023-02-21T04:12:27;6.05;;;3.97;;
9807;SDS011;4943;52.550;13.462;2023-02-21T04:14:55;5.60;;;3.83;;
9807;SDS011;4943;52.550;13.462;2023-02-21T04:17:23;5.13;;;3.90;;
9807;SDS011;4943;52.550;13.462;2023-02-21T04:19:52;5.90;;;4.20;;
9807;SDS011;4943;52.550;13.462;2023-02-21T04:22:20;6.23;;;3.60;;
9807;SDS011;4943;52.550;13.462;2023-02-21T04:24:48;5.47;;;4.20;;
9807;SDS011;4943;52.550;13.462;2023-02-21T04:27:16;9.80;;;4.07;;
9807;SDS011;4943;52.550;13.462;2023-02-21T04:29:46;8.83;;;4.30;;
9807;SDS011;4943;52.550;13.462;2023-02-21T04:32:14;6.10;;;3.83;;
9807;SDS011;4943;52.550;13.462;2023-02-21T04:34:42;6.57;;;4.37;;
9807;SDS011;4943;52.550;13.462;2023-02-21T04:37:10;5.23;;;3.60;;
9807;SDS011;4943;52.550;13.462;2023-02-21T04:39:38;8.70;;;4.43;;
9807;SDS011;4943;52.550;13.462;2023-02-21T04:42:06;6.07;;;4.03;;
9807;SDS011;4943;52.550;13.462;2023-02-21T04:44:34;6.00;;;3.97;;
9807;SDS011;4943;52.550;13.462;2023-02-21T04:47:04;7.30;;;4.00;;
9807;SDS011;4943;52.550;13.462;2023-02-21T04:49:32;5.53;;;3.60;;
9807;SDS011;4943;52.550;13.462;2023-02-21T04:52:00;5.80;;;3.93;;
9807;SDS011;4943;52.550;13.462;2023-02-21T04:54:28;5.53;;;3.80;;
9807;SDS011;4943;52.550;13.462;2023-02-21T04:56:56;4.50;;;3.30;;
9807;SDS011;4943;52.550;13.462;2023-02-21T04:59:24;8.32;;;4.38;;
9807;SDS011;4943;52.550;13.462;2023-02-21T05:01:52;5.70;;;4.17;;
9807;SDS011;4943;52.550;13.462;2023-02-21T05:04:22;5.33;;;4.10;;
9807;SDS011;4943;52.550;13.462;2023-02-21T05:06:50;4.70;;;3.43;;
9807;SDS011;4943;52.550;13.462;2023-02-21T05:09:18;4.90;;;3.67;;
9807;SDS011;4943;52.550;13.462;2023-02-21T05:11:46;6.17;;;4.10;;
9807;SDS011;4943;52.550;13.462;2023-02-21T05:14:14;5.17;;;4.30;;
9807;SDS011;4943;52.550;13.462;2023-02-21T05:16:43;5.30;;;3.70;;
9807;SDS011;4943;52.550;13.462;2023-02-21T05:19:11;6.37;;;3.47;;
9807;SDS011;4943;52.550;13.462;2023-02-21T05:21:40;5.43;;;3.60;;
9807;SDS011;4943;52.550;13.462;2023-02-21T05:24:08;6.53;;;3.77;;
9807;SDS011;4943;52.550;13.462;2023-02-21T05:26:37;5.23;;;4.13;;
9807;SDS011;4943;52.550;13.462;2023-02-21T05:29:05;6.27;;;4.27;;
9807;SDS011;4943;52.550;13.462;2023-02-21T05:31:33;6.13;;;4.13;;
9807;SDS011;4943;52.550;13.462;2023-02-21T05:34:01;7.73;;;4.40;;
9807;SDS011;4943;52.550;13.462;2023-02-21T05:36:29;5.10;;;3.67;;
9807;SDS011;4943;52.550;13.462;2023-02-21T05:38:58;5.83;;;4.33;;
9807;SDS011;4943;52.550;13.462;2023-02-21T05:41:26;7.43;;;4.83;;
9807;SDS011;4943;52.550;13.462;2023-02-21T05:43:54;6.77;;;4.10;;
9807;SDS011;4943;52.550;13.462;2023-02-21T05:46:23;8.30;;;4.20;;
9807;SDS011;4943;52.550;13.462;2023-02-21T05:48:53;7.17;;;4.37;;
9807;SDS011;4943;52.550;13.462;2023-02-21T05:51:22;5.93;;;3.57;;
9807;SDS011;4943;52.550;13.462;2023-02-21T05:53:51;6.30;;;4.30;;
9807;SDS011;4943;52.550;13.462;2023-02-21T05:56:20;7.33;;;4.30;;
9807;SDS011;4943;52.550;13.462;2023-02-21T05:58:48;5.87;;;4.33;;
9807;SDS011;4943;52.550;13.462;2023-02-21T06:01:16;5.43;;;3.87;;
9807;SDS011;4943;52.550;13.462;2023-02-21T06:03:44;6.97;;;4.60;;
9807;SDS011;4943;52.550;13.462;2023-02-21T06:06:13;4.90;;;3.30;;
9807;SDS011;4943;52.550;13.462;2023-02-21T06:08:42;6.77;;;4.47;;
9807;SDS011;4943;52.550;13.462;2023-02-21T06:11:11;8.13;;;4.60;;
9807;SDS011;4943;52.550;13.462;2023-02-21T06:13:41;6.70;;;4.13;;
9807;SDS011;4943;52.550;13.462;2023-02-21T06:16:09;5.97;;;3.37;;
9807;SDS011;4943;52.550;13.462;2023-02-21T06:18:37;6.50;;;4.30;;
9807;SDS011;4943;52.550;13.462;2023-02-21T06:21:05;6.13;;;3.90;;
9807;SDS011;4943;52.550;13.462;2023-02-21T06:23:33;5.20;;;3.60;;
9807;SDS011;4943;52.550;13.462;2023-02-21T06:26:01;5.30;;;3.80;;
9807;SDS011;4943;52.550;13.462;2023-02-21T06:28:29;6.40;;;3.80;;
9807;SDS011;4943;52.550;13.462;2023-02-21T06:30:59;6.50;;;4.10;;
9807;SDS011;4943;52.550;13.462;2023-02-21T06:33:27;5.33;;;3.80;;
9807;SDS011;4943;52.550;13.462;2023-02-21T06:35:55;4.40;;;2.90;;
9807;SDS011;4943;52.550;13.462;2023-02-21T06:38:23;4.13;;;3.07;;
9807;SDS011;4943;52.550;13.462;2023-02-21T06:40:51;4.10;;;2.67;;
9807;SDS011;4943;52.550;13.462;2023-02-21T06:43:19;5.17;;;3.20;;
9807;SDS011;4943;52.550;13.462;2023-02-21T06:45:47;4.87;;;3.10;;
9807;SDS011;4943;52.550;13.462;2023-02-21T06:48:16;5.37;;;3.27;;
9807;SDS011;4943;52.550;13.462;2023-02-21T06:50:45;3.97;;;2.77;;
9807;SDS011;4943;52.550;13.462;2023-02-21T06:53:13;4.33;;;2.60;;
9807;SDS011;4943;52.550;13.462;2023-02-21T06:55:41;4.47;;;2.67;;
9807;SDS011;4943;52.550;13.462;2023-02-21T06:58:08;3.83;;;2.20;;
9807;SDS011;4943;52.550;13.462;2023-02-21T07:00:37;2.93;;;2.57;;
9807;SDS011;4943;52.550;13.462;2023-02-21T07:03:04;3.23;;;2.40;;
9807;SDS011;4943;52.550;13.462;2023-02-21T07:05:34;3.03;;;2.40;;
9807;SDS011;4943;52.550;13.462;2023-02-21T07:08:03;3.97;;;2.73;;
9807;SDS011;4943;52.550;13.462;2023-02-21T07:10:32;3.40;;;2.40;;
9807;SDS011;4943;52.550;13.462;2023-02-21T07:13:00;3.93;;;2.20;;
9807;SDS011;4943;52.550;13.462;2023-02-21T07:15:28;4.13;;;2.37;;
9807;SDS011;4943;52.550;13.462;2023-02-21T07:17:56;3.87;;;2.67;;
9807;SDS011;4943;52.550;13.462;2023-02-21T07:20:24;4.17;;;2.60;;
9807;SDS011;4943;52.550;13.462;2023-02-21T07:22:54;2.63;;;1.90;;
9807;SDS011;4943;52.550;13.462;2023-02-21T07:25:22;3.77;;;2.67;;
9807;SDS011;4943;52.550;13.462;2023-02-21T07:27:50;3.63;;;2.50;;
9807;SDS011;4943;52.550;13.462;2023-02-21T07:30:19;4.00;;;2.67;;
9807;SDS011;4943;52.550;13.462;2023-02-21T07:32:47;3.63;;;2.63;;
9807;SDS011;4943;52.550;13.462;2023-02-21T07:35:15;2.83;;;2.22;;
9807;SDS011;4943;52.550;13.462;2023-02-21T07:37:43;2.83;;;2.00;;
9807;SDS011;4943;52.550;13.462;2023-02-21T07:40:13;3.97;;;2.30;;
9807;SDS011;4943;52.550;13.462;2023-02-21T07:42:41;2.43;;;2.23;;
9807;SDS011;4943;52.550;13.462;2023-02-21T07:45:09;2.87;;;2.10;;
9807;SDS011;4943;52.550;13.462;2023-02-21T07:47:38;3.93;;;2.30;;
9807;SDS011;4943;52.550;13.462;2023-02-21T07:50:06;2.47;;;2.07;;
9807;SDS011;4943;52.550;13.462;2023-02-21T07:52:34;2.53;;;1.80;;
9807;SDS011;4943;52.550;13.462;2023-02-21T07:55:03;2.88;;;1.80;;
9807;SDS011;4943;52.550;13.462;2023-02-21T07:57:33;2.37;;;1.57;;
9807;SDS011;4943;52.550;13.462;2023-02-21T08:00:01;4.20;;;2.03;;
9807;SDS011;4943;52.550;13.462;2023-02-21T08:02:29;1.80;;;1.50;;
9807;SDS011;4943;52.550;13.462;2023-02-21T08:04:57;1.83;;;1.47;;
9807;SDS011;4943;52.550;13.462;2023-02-21T08:07:25;2.35;;;1.40;;
9807;SDS011;4943;52.550;13.462;2023-02-21T08:09:53;1.90;;;1.20;;
9807;SDS011;4943;52.550;13.462;2023-02-21T08:12:21;1.47;;;1.30;;
9807;SDS011;4943;52.550;13.462;2023-02-21T08:14:52;1.83;;;1.20;;
9807;SDS011;4943;52.550;13.462;2023-02-21T08:17:20;2.03;;;1.40;;
9807;SDS011;4943;52.550;13.462;2023-02-21T08:19:48;1.45;;;1.27;;
9807;SDS011;4943;52.550;13.462;2023-02-21T08:22:16;1.35;;;1.00;;
9807;SDS011;4943;52.550;13.462;2023-02-21T08:24:44;1.75;;;1.30;;
9807;SDS011;4943;52.550;13.462;2023-02-21T08:27:12;2.10;;;1.33;;
9807;SDS011;4943;52.550;13.462;2023-02-21T08:29:40;1.77;;;1.20;;
9807;SDS011;4943;52.550;13.462;2023-02-21T08:32:09;2.17;;;1.33;;
9807;SDS011;4943;52.550;13.462;2023-02-21T08:34:37;3.17;;;1.10;;
9807;SDS011;4943;52.550;13.462;2023-02-21T08:37:05;1.20;;;0.80;;
9807;SDS011;4943;52.550;13.462;2023-02-21T08:39:43;1.40;;;1.13;;
9807;SDS011;4943;52.550;13.462;2023-02-21T08:42:11;1.07;;;0.63;;
9807;SDS011;4943;52.550;13.462;2023-02-21T08:44:41;1.43;;;1.13;;
9807;SDS011;4943;52.550;13.462;2023-02-21T08:47:11;1.15;;;0.90;;
9807;SDS011;4943;52.550;13.462;2023-02-21T08:49:42;0.70;;;0.70;;
9807;SDS011;4943;52.550;13.462;2023-02-21T08:52:12;2.20;;;0.80;;
9807;SDS011;4943;52.550;13.462;2023-02-21T08:54:41;0.70;;;0.70;;
9807;SDS011;4943;52.550;13.462;2023-02-21T08:57:10;0.95;;;0.82;;
9807;SDS011;4943;52.550;13.462;2023-02-21T08:59:38;2.05;;;0.65;;
9807;SDS011;4943;52.550;13.462;2023-02-21T09:02:13;2.20;;;1.05;;
9807;SDS011;4943;52.550;13.462;2023-02-21T09:04:42;1.20;;;1.10;;
9807;SDS011;4943;52.550;13.462;2023-02-21T09:07:10;0.88;;;0.80;;
9807;SDS011;4943;52.550;13.462;2023-02-21T09:09:39;1.95;;;0.77;;
9807;SDS011;4943;52.550;13.462;2023-02-21T09:12:07;3.42;;;1.02;;
9807;SDS011;4943;52.550;13.462;2023-02-21T09:14:36;2.25;;;1.20;;
9807;SDS011;4943;52.550;13.462;2023-02-21T09:17:05;1.13;;;0.83;;
9807;SDS011;4943;52.550;13.462;2023-02-21T09:19:36;1.05;;;0.95;;
9807;SDS011;4943;52.550;13.462;2023-02-21T09:22:05;0.77;;;0.77;;
9807;SDS011;4943;52.550;13.462;2023-02-21T09:24:34;1.42;;;1.02;;
9807;SDS011;4943;52.550;13.462;2023-02-21T09:27:02;1.57;;;0.90;;
9807;SDS011;4943;52.550;13.462;2023-02-21T09:29:31;1.63;;;0.88;;
9807;SDS011;4943;52.550;13.462;2023-02-21T09:32:11;1.73;;;0.95;;
9807;SDS011;4943;52.550;13.462;2023-02-21T09:34:41;2.00;;;0.90;;
9807;SDS011;4943;52.550;13.462;2023-02-21T09:37:09;1.63;;;0.80;;
9807;SDS011;4943;52.550;13.462;2023-02-21T09:39:37;5.10;;;1.40;;
9807;SDS011;4943;52.550;13.462;2023-02-21T09:42:05;3.08;;;0.98;;
9807;SDS011;4943;52.550;13.462;2023-02-21T09:44:33;2.20;;;1.05;;
9807;SDS011;4943;52.550;13.462;2023-02-21T09:47:03;5.50;;;1.20;;
9807;SDS011;4943;52.550;13.462;2023-02-21T09:49:34;3.42;;;1.15;;
9807;SDS011;4943;52.550;13.462;2023-02-21T09:52:06;3.30;;;1.38;;
9807;SDS011;4943;52.550;13.462;2023-02-21T09:54:59;8.57;;;2.05;;
9807;SDS011;4943;52.550;13.462;2023-02-21T09:57:31;4.47;;;1.17;;
9807;SDS011;4943;52.550;13.462;2023-02-21T09:59:59;5.38;;;1.15;;
9807;SDS011;4943;52.550;13.462;2023-02-21T10:02:31;4.80;;;1.38;;
9807;SDS011;4943;52.550;13.462;2023-02-21T10:05:08;6.75;;;1.70;;
9807;SDS011;4943;52.550;13.462;2023-02-21T10:07:52;6.65;;;1.52;;
9807;SDS011;4943;52.550;13.462;2023-02-21T10:10:27;6.35;;;1.70;;
9807;SDS011;4943;52.550;13.462;2023-02-21T10:13:02;5.28;;;1.83;;
9807;SDS011;4943;52.550;13.462;2023-02-21T10:15:39;3.47;;;1.10;;
9807;SDS011;4943;52.550;13.462;2023-02-21T10:18:14;8.73;;;1.38;;
9807;SDS011;4943;52.550;13.462;2023-02-21T10:20:48;3.25;;;1.33;;
9807;SDS011;4943;52.550;13.462;2023-02-21T10:23:22;2.85;;;1.00;;
9807;SDS011;4943;52.550;13.462;2023-02-21T10:25:58;4.05;;;1.48;;
9807;SDS011;4943;52.550;13.462;2023-02-21T10:28:32;5.90;;;1.00;;
9807;SDS011;4943;52.550;13.462;2023-02-21T10:31:02;7.35;;;1.42;;
9807;SDS011;4943;52.550;13.462;2023-02-21T10:33:34;11.07;;;1.88;;
9807;SDS011;4943;52.550;13.462;2023-02-21T10:36:09;6.78;;;1.38;;
9807;SDS011;4943;52.550;13.462;2023-02-21T10:38:42;4.80;;;1.40;;
9807;SDS011;4943;52.550;13.462;2023-02-21T10:41:16;4.25;;;1.20;;
9807;SDS011;4943;52.550;13.462;2023-02-21T10:43:46;2.47;;;0.95;;
9807;SDS011;4943;52.550;13.462;2023-02-21T10:46:19;4.10;;;1.27;;
9807;SDS011;4943;52.550;13.462;2023-02-21T10:48:51;6.07;;;1.77;;
9807;SDS011;4943;52.550;13.462;2023-02-21T10:51:28;4.68;;;1.58;;
9807;SDS011;4943;52.550;13.462;2023-02-21T10:56:46;4.65;;;1.48;;
9807;SDS011;4943;52.550;13.462;2023-02-21T10:59:18;5.63;;;1.30;;
9807;SDS011;4943;52.550;13.462;2023-02-21T11:01:49;1.60;;;1.10;;
9807;SDS011;4943;52.550;13.462;2023-02-21T11:04:23;5.90;;;1.40;;
9807;SDS011;4943;52.550;13.462;2023-02-21T11:06:55;6.57;;;1.60;;
9807;SDS011;4943;52.550;13.462;2023-02-21T11:09:35;6.70;;;1.42;;
9807;SDS011;4943;52.550;13.462;2023-02-21T11:12:06;6.95;;;1.55;;
9807;SDS011;4943;52.550;13.462;2023-02-21T11:14:44;10.07;;;2.08;;
9807;SDS011;4943;52.550;13.462;2023-02-21T11:17:31;6.13;;;1.25;;
9807;SDS011;4943;52.550;13.462;2023-02-21T11:20:02;4.38;;;1.70;;
9807;SDS011;4943;52.550;13.462;2023-02-21T11:22:43;6.03;;;1.45;;
9807;SDS011;4943;52.550;13.462;2023-02-21T11:25:16;5.20;;;1.70;;
9807;SDS011;4943;52.550;13.462;2023-02-21T11:27:58;3.80;;;1.38;;
9807;SDS011;4943;52.550;13.462;2023-02-21T11:30:30;7.82;;;1.73;;
9807;SDS011;4943;52.550;13.462;2023-02-21T11:32:59;6.50;;;1.90;;
9807;SDS011;4943;52.550;13.462;2023-02-21T11:35:32;7.00;;;1.65;;
9807;SDS011;4943;52.550;13.462;2023-02-21T11:38:02;6.13;;;1.85;;
9807;SDS011;4943;52.550;13.462;2023-02-21T11:40:40;5.53;;;1.02;;
9807;SDS011;4943;52.550;13.462;2023-02-21T11:43:11;5.53;;;1.52;;
9807;SDS011;4943;52.550;13.462;2023-02-21T11:45:47;6.88;;;2.28;;
9807;SDS011;4943;52.550;13.462;2023-02-21T11:48:31;4.68;;;1.42;;
9807;SDS011;4943;52.550;13.462;2023-02-21T11:51:03;5.30;;;1.70;;
9807;SDS011;4943;52.550;13.462;2023-02-21T11:53:36;4.80;;;1.63;;
9807;SDS011;4943;52.550;13.462;2023-02-21T11:56:12;3.67;;;1.55;;
9807;SDS011;4943;52.550;13.462;2023-02-21T11:58:48;7.22;;;1.67;;
9807;SDS011;4943;52.550;13.462;2023-02-21T12:01:24;7.38;;;1.52;;
9807;SDS011;4943;52.550;13.462;2023-02-21T12:03:59;6.13;;;1.90;;
9807;SDS011;4943;52.550;13.462;2023-02-21T12:06:40;4.43;;;1.45;;
9807;SDS011;4943;52.550;13.462;2023-02-21T12:09:16;7.45;;;1.70;;
9807;SDS011;4943;52.550;13.462;2023-02-21T12:11:55;4.22;;;1.10;;
9807;SDS011;4943;52.550;13.462;2023-02-21T12:14:41;7.50;;;1.70;;
9807;SDS011;4943;52.550;13.462;2023-02-21T12:17:25;8.27;;;1.25;;
9807;SDS011;4943;52.550;13.462;2023-02-21T12:20:14;5.80;;;2.03;;
9807;SDS011;4943;52.550;13.462;2023-02-21T12:22:55;3.88;;;1.38;;
9807;SDS011;4943;52.550;13.462;2023-02-21T12:25:31;5.45;;;2.03;;
9807;SDS011;4943;52.550;13.462;2023-02-21T12:28:08;6.50;;;1.60;;
9807;SDS011;4943;52.550;13.462;2023-02-21T12:30:47;10.50;;;2.10;;
9807;SDS011;4943;52.550;13.462;2023-02-21T12:33:29;6.00;;;1.58;;
9807;SDS011;4943;52.550;13.462;2023-02-21T12:36:17;6.45;;;2.15;;
9807;SDS011;4943;52.550;13.462;2023-02-21T12:38:59;6.72;;;1.90;;
9807;SDS011;4943;52.550;13.462;2023-02-21T12:41:48;4.95;;;1.73;;
9807;SDS011;4943;52.550;13.462;2023-02-21T12:44:47;5.68;;;1.83;;
9807;SDS011;4943;52.550;13.462;2023-02-21T12:47:22;5.17;;;1.50;;
9807;SDS011;4943;52.550;13.462;2023-02-21T12:49:56;8.43;;;1.90;;
9807;SDS011;4943;52.550;13.462;2023-02-21T12:52:29;5.80;;;1.40;;
9807;SDS011;4943;52.550;13.462;2023-02-21T12:55:00;7.40;;;1.90;;
9807;SDS011;4943;52.550;13.462;2023-02-21T12:57:33;8.75;;;1.90;;
9807;SDS011;4943;52.550;13.462;2023-02-21T13:00:11;4.80;;;1.40;;
9807;SDS011;4943;52.550;13.462;2023-02-21T13:02:47;8.98;;;1.67;;
9807;SDS011;4943;52.550;13.462;2023-02-21T13:05:35;5.35;;;1.40;;
9807;SDS011;4943;52.550;13.462;2023-02-21T13:08:08;2.25;;;1.38;;
9807;SDS011;4943;52.550;13.462;2023-02-21T13:10:45;4.70;;;1.63;;
9807;SDS011;4943;52.550;13.462;2023-02-21T13:13:20;5.07;;;1.67;;
9807;SDS011;4943;52.550;13.462;2023-02-21T13:15:53;5.07;;;1.27;;
9807;SDS011;4943;52.550;13.462;2023-02-21T13:18:23;7.25;;;1.80;;
9807;SDS011;4943;52.550;13.462;2023-02-21T13:20:55;4.68;;;1.35;;
9807;SDS011;4943;52.550;13.462;2023-02-21T13:26:53;3.10;;;1.17;;
9807;SDS011;4943;52.550;13.462;2023-02-21T13:29:35;3.63;;;1.40;;
9807;SDS011;4943;52.550;13.462;2023-02-21T13:32:06;7.43;;;2.63;;
9807;SDS011;4943;52.550;13.462;2023-02-21T13:34:37;6.88;;;1.40;;
9807;SDS011;4943;52.550;13.462;2023-02-21T13:37:13;5.60;;;1.63;;
9807;SDS011;4943;52.550;13.462;2023-02-21T13:39:43;5.53;;;1.58;;
9807;SDS011;4943;52.550;13.462;2023-02-21T13:42:14;4.13;;;1.13;;
9807;SDS011;4943;52.550;13.462;2023-02-21T13:44:46;4.60;;;1.20;;
9807;SDS011;4943;52.550;13.462;2023-02-21T13:47:18;5.88;;;1.55;;
9807;SDS011;4943;52.550;13.462;2023-02-21T13:49:48;6.85;;;1.85;;
9807;SDS011;4943;52.550;13.462;2023-02-21T13:52:33;7.80;;;2.85;;
9807;SDS011;4943;52.550;13.462;2023-02-21T13:55:26;5.32;;;1.55;;
9807;SDS011;4943;52.550;13.462;2023-02-21T14:01:12;9.10;;;2.10;;
9807;SDS011;4943;52.550;13.462;2023-02-21T14:03:43;6.25;;;1.77;;
9807;SDS011;4943;52.550;13.462;2023-02-21T14:06:21;5.10;;;1.70;;
9807;SDS011;4943;52.550;13.462;2023-02-21T14:09:05;5.43;;;1.63;;
9807;SDS011;4943;52.550;13.462;2023-02-21T14:11:38;6.32;;;1.60;;
9807;SDS011;4943;52.550;13.462;2023-02-21T14:14:19;2.67;;;1.17;;
9807;SDS011;4943;52.550;13.462;2023-02-21T14:16:51;2.53;;;1.27;;
9807;SDS011;4943;52.550;13.462;2023-02-21T14:19:30;4.73;;;1.97;;
9807;SDS011;4943;52.550;13.462;2023-02-21T14:22:02;5.90;;;1.77;;
9807;SDS011;4943;52.550;13.462;2023-02-21T14:24:37;6.90;;;1.95;;
9807;SDS011;4943;52.550;13.462;2023-02-21T14:35:54;6.70;;;1.50;;
9807;SDS011;4943;52.550;13.462;2023-02-21T14:38:26;5.10;;;1.17;;
9807;SDS011;4943;52.550;13.462;2023-02-21T14:41:01;3.10;;;1.50;;
9807;SDS011;4943;52.550;13.462;2023-02-21T14:43:50;6.75;;;1.83;;
9807;SDS011;4943;52.550;13.462;2023-02-21T14:46:34;5.38;;;1.90;;
9807;SDS011;4943;52.550;13.462;2023-02-21T14:49:43;4.65;;;1.65;;
9807;SDS011;4943;52.550;13.462;2023-02-21T14:52:39;5.87;;;1.80;;
9807;SDS011;4943;52.550;13.462;2023-02-21T14:55:21;7.80;;;1.75;;
9807;SDS011;4943;52.550;13.462;2023-02-21T14:58:04;6.68;;;2.08;;
9807;SDS011;4943;52.550;13.462;2023-02-21T15:01:00;6.40;;;1.60;;
9807;SDS011;4943;52.550;13.462;2023-02-21T15:03:35;5.97;;;1.95;;
9807;SDS011;4943;52.550;13.462;2023-02-21T15:06:09;4.78;;;1.25;;
9807;SDS011;4943;52.550;13.462;2023-02-21T15:08:45;5.35;;;1.85;;
9807;SDS011;4943;52.550;13.462;2023-02-21T15:11:18;4.90;;;1.35;;
9807;SDS011;4943;52.550;13.462;2023-02-21T15:14:10;7.15;;;1.60;;
9807;SDS011;4943;52.550;13.462;2023-02-21T15:16:49;10.23;;;2.23;;
9807;SDS011;4943;52.550;13.462;2023-02-21T15:19:21;4.40;;;1.83;;
9807;SDS011;4943;52.550;13.462;2023-02-21T15:22:05;4.82;;;1.77;;
9807;SDS011;4943;52.550;13.462;2023-02-21T15:24:40;4.40;;;1.67;;
9807;SDS011;4943;52.550;13.462;2023-02-21T15:27:08;10.73;;;2.35;;
9807;SDS011;4943;52.550;13.462;2023-02-21T15:29:37;6.13;;;2.50;;
9807;SDS011;4943;52.550;13.462;2023-02-21T15:32:05;4.53;;;1.50;;
9807;SDS011;4943;52.550;13.462;2023-02-21T15:34:36;4.13;;;1.80;;
9807;SDS011;4943;52.550;13.462;2023-02-21T15:37:10;7.60;;;2.10;;
9807;SDS011;4943;52.550;13.462;2023-02-21T15:39:47;6.72;;;1.63;;
9807;SDS011;4943;52.550;13.462;2023-02-21T15:42:20;11.05;;;2.05;;
9807;SDS011;4943;52.550;13.462;2023-02-21T15:44:50;8.07;;;1.80;;
9807;SDS011;4943;52.550;13.462;2023-02-21T15:47:22;5.73;;;2.10;;
9807;SDS011;4943;52.550;13.462;2023-02-21T15:49:54;8.50;;;1.73;;
9807;SDS011;4943;52.550;13.462;2023-02-21T15:52:27;7.60;;;1.83;;
9807;SDS011;4943;52.550;13.462;2023-02-21T15:55:25;3.45;;;1.95;;
9807;SDS011;4943;52.550;13.462;2023-02-21T15:57:59;5.60;;;1.20;;
9807;SDS011;4943;52.550;13.462;2023-02-21T16:00:30;6.67;;;1.67;;
9807;SDS011;4943;52.550;13.462;2023-02-21T16:05:53;5.47;;;1.42;;
9807;SDS011;4943;52.550;13.462;2023-02-21T16:08:22;5.87;;;1.80;;
9807;SDS011;4943;52.550;13.462;2023-02-21T16:10:52;3.73;;;1.40;;
9807;SDS011;4943;52.550;13.462;2023-02-21T16:13:33;7.25;;;2.03;;
9807;SDS011;4943;52.550;13.462;2023-02-21T16:16:02;6.40;;;1.40;;
9807;SDS011;4943;52.550;13.462;2023-02-21T16:18:31;5.97;;;1.73;;
9807;SDS011;4943;52.550;13.462;2023-02-21T16:21:00;5.10;;;1.83;;